Time;durP1;ratioP1;P1;durP2;ratioP2;P2;SDS_P1;SDS_P2;PMS_P1;PMS_P2;Temp;Humidity;BMP_temperature;BMP_pressure;BME280_temperature;BME280_humidity;BME280_pressure;Samples;Min_cycle;Max_cycle;Signal;HPM_P1;HPM_P2
2022/06/17 00:00:37;;;;;;;2.75;1.70;;;20.40;92.90;;;;;;4098338;28;20126;-70
2022/06/17 00:02:38;;;;;;;2.13;1.45;;;20.40;92.80;;;;;;4096467;28;20147;-70
2022/06/17 00:04:38;;;;;;;2.10;1.65;;;20.30;93.00;;;;;;4096988;28;20036;-70
2022/06/17 00:06:43;;;;;;;2.65;1.92;;;20.30;92.80;;;;;;4096204;28;20469;-70
2022/06/17 00:08:49;;;;;;;2.00;1.80;;;20.30;92.40;;;;;;4096217;28;20039;-70
2022/06/17 00:10:50;;;;;;;2.72;1.58;;;20.30;92.30;;;;;;4096461;28;20451;-70
2022/06/17 00:12:52;;;;;;;2.47;2.00;;;20.20;92.10;;;;;;4096285;28;20027;-70
2022/06/17 00:17:12;;;;;;;1.90;1.50;;;20.20;91.80;;;;;;4095355;29;20035;-70
2022/06/17 00:19:12;;;;;;;2.67;1.83;;;20.20;92.60;;;;;;4096203;28;20042;-70
2022/06/17 00:21:21;;;;;;;2.38;1.60;;;20.10;92.40;;;;;;4095722;28;20035;-70
2022/06/17 00:23:24;;;;;;;2.65;2.00;;;20.10;93.00;;;;;;4096624;28;20387;-69
2022/06/17 00:25:34;;;;;;;1.60;1.45;;;20.10;92.50;;;;;;4095658;29;20058;-70
2022/06/17 00:27:34;;;;;;;1.55;1.30;;;20.10;92.60;;;;;;4094633;28;20067;-70
2022/06/17 00:29:35;;;;;;;2.42;1.65;;;20.10;93.50;;;;;;4095787;28;20047;-70
2022/06/17 00:31:36;;;;;;;2.28;1.77;;;20.10;92.60;;;;;;4095964;28;20031;-70
2022/06/17 00:33:37;;;;;;;3.17;1.77;;;20.10;93.00;;;;;;4096761;28;20031;-70
2022/06/17 00:35:40;;;;;;;2.72;1.75;;;20.00;92.50;;;;;;4095936;28;20091;-70
2022/06/17 00:37:41;;;;;;;2.22;1.42;;;20.00;91.90;;;;;;4096310;28;20569;-70
2022/06/17 00:39:42;;;;;;;3.10;1.88;;;19.90;92.80;;;;;;4095717;28;20035;-70
2022/06/17 00:41:47;;;;;;;1.75;1.63;;;19.90;92.80;;;;;;4095502;28;20038;-70
2022/06/17 00:43:48;;;;;;;2.08;1.60;;;19.90;93.10;;;;;;4096667;28;20032;-70
2022/06/17 00:46:15;;;;;;;1.90;1.67;;;19.90;93.40;;;;;;4095322;28;20114;-70
2022/06/17 00:48:24;;;;;;;2.63;1.98;;;19.90;93.40;;;;;;4076480;29;20055;-70
2022/06/17 00:50:38;;;;;;;1.85;1.63;;;19.90;93.50;;;;;;4095052;28;20122;-70
2022/06/17 00:53:02;;;;;;;2.58;1.85;;;19.80;93.20;;;;;;4095669;28;20047;-70
2022/06/17 00:55:13;;;;;;;2.50;1.67;;;19.80;93.00;;;;;;4094672;28;20075;-71
2022/06/17 00:57:29;;;;;;;3.13;1.75;;;19.80;92.40;;;;;;4094036;28;20031;-70
2022/06/17 00:59:31;;;;;;;3.03;1.50;;;19.80;93.00;;;;;;4094609;28;20066;-70
2022/06/17 01:01:38;;;;;;;2.03;1.80;;;19.80;93.10;;;;;;4095438;28;20054;-70
2022/06/17 01:03:39;;;;;;;4.75;2.15;;;19.70;93.20;;;;;;4094526;28;20032;-70
2022/06/17 01:05:47;;;;;;;2.35;2.15;;;19.70;93.30;;;;;;4094612;28;20061;-70
2022/06/17 01:07:57;;;;;;;3.20;2.22;;;19.70;93.30;;;;;;4096256;28;20035;-70
2022/06/17 01:10:02;;;;;;;2.63;1.90;;;19.70;94.20;;;;;;4095572;28;20037;-69
2022/06/17 01:12:08;;;;;;;2.72;2.17;;;19.70;93.70;;;;;;4095430;28;20043;-70
2022/06/17 01:14:12;;;;;;;2.67;2.15;;;19.60;94.10;;;;;;4096228;28;20170;-70
2022/06/17 01:16:13;;;;;;;3.65;2.28;;;19.70;94.60;;;;;;4095635;28;20043;-70
2022/06/17 01:18:14;;;;;;;2.20;1.90;;;19.60;94.60;;;;;;4095430;28;20411;-70
2022/06/17 01:20:16;;;;;;;2.53;2.03;;;19.60;94.60;;;;;;4095789;28;20023;-71
2022/06/17 01:22:25;;;;;;;2.63;1.77;;;19.60;94.30;;;;;;4095317;28;20086;-70
2022/06/17 01:24:26;;;;;;;3.65;2.00;;;19.60;94.30;;;;;;4095744;28;20107;-69
2022/06/17 01:26:27;;;;;;;2.20;1.77;;;19.60;94.50;;;;;;4095621;28;20040;-70
2022/06/17 01:28:27;;;;;;;3.40;2.00;;;19.60;95.20;;;;;;4095304;28;20035;-70
2022/06/17 01:30:54;;;;;;;3.15;1.58;;;19.50;94.50;;;;;;4095595;28;20123;-70
2022/06/17 01:33:04;;;;;;;2.88;2.20;;;19.50;94.70;;;;;;4094676;28;20398;-70
2022/06/17 01:35:05;;;;;;;3.72;2.22;;;19.50;94.00;;;;;;4099046;28;20031;-72
2022/06/17 01:37:07;;;;;;;2.92;1.95;;;19.40;94.00;;;;;;4095446;29;20566;-70
2022/06/17 01:39:08;;;;;;;2.38;1.70;;;19.40;94.60;;;;;;4095771;28;20528;-70
2022/06/17 01:41:10;;;;;;;2.75;1.70;;;19.30;95.10;;;;;;4094882;28;20066;-70
2022/06/17 01:43:14;;;;;;;4.88;1.98;;;19.30;94.70;;;;;;4096039;28;20637;-70
2022/06/17 01:45:15;;;;;;;2.30;1.92;;;19.30;94.80;;;;;;4091799;28;20035;-70
2022/06/17 01:47:20;;;;;;;4.28;1.85;;;19.20;94.50;;;;;;4098357;28;20036;-70
2022/06/17 01:49:29;;;;;;;4.78;2.20;;;19.20;94.60;;;;;;4095436;29;20391;-70
2022/06/17 01:51:32;;;;;;;2.80;2.00;;;19.20;96.10;;;;;;4094420;28;20039;-70
2022/06/17 01:53:37;;;;;;;2.20;1.98;;;19.20;96.20;;;;;;4095911;28;20511;-70
2022/06/17 01:55:45;;;;;;;6.18;2.15;;;19.20;95.20;;;;;;4095055;28;20043;-70
2022/06/17 01:58:38;;;;;;;3.60;2.10;;;19.00;95.00;;;;;;4096042;28;20172;-70
2022/06/17 02:00:41;;;;;;;2.53;2.03;;;19.00;95.70;;;;;;4076073;28;20086;-70
2022/06/17 02:02:45;;;;;;;2.30;2.08;;;18.90;96.80;;;;;;4095162;29;20039;-70
2022/06/17 02:04:53;;;;;;;3.05;2.30;;;18.90;97.60;;;;;;4095938;28;20035;-70
2022/06/17 02:07:15;;;;;;;3.63;1.73;;;18.90;97.30;;;;;;4091181;28;20035;-70
2022/06/17 02:09:16;;;;;;;3.33;1.98;;;18.90;97.40;;;;;;4098212;28;20237;-70
2022/06/17 02:11:17;;;;;;;8.50;2.67;;;18.90;97.40;;;;;;4085512;29;20531;-70
2022/06/17 02:13:18;;;;;;;5.68;2.20;;;19.00;97.60;;;;;;4096385;28;20098;-70
2022/06/17 02:15:18;;;;;;;2.78;1.77;;;18.90;97.10;;;;;;4094848;28;20039;-71
2022/06/17 02:17:21;;;;;;;3.53;2.25;;;19.00;97.80;;;;;;4095183;28;20399;-70
2022/06/17 02:19:25;;;;;;;2.53;2.10;;;19.00;97.00;;;;;;4095289;28;20123;-70
2022/06/17 02:21:33;;;;;;;2.63;1.70;;;18.90;97.20;;;;;;4093442;28;20065;-70
2022/06/17 02:23:34;;;;;;;3.20;1.98;;;18.90;97.10;;;;;;4092245;28;20050;-70
2022/06/17 02:25:39;;;;;;;4.10;2.40;;;18.90;97.30;;;;;;4094858;28;20039;-70
2022/06/17 02:27:43;;;;;;;2.53;2.15;;;18.90;97.30;;;;;;4095577;28;20546;-70
2022/06/17 02:29:45;;;;;;;2.47;2.03;;;18.90;97.70;;;;;;4093005;28;20058;-70
2022/06/17 02:31:46;;;;;;;3.30;2.30;;;18.90;97.70;;;;;;4093243;29;20124;-70
2022/06/17 02:33:51;;;;;;;2.75;2.10;;;18.80;97.60;;;;;;4095325;28;20174;-70
2022/06/17 02:36:02;;;;;;;7.07;2.20;;;18.90;97.90;;;;;;4094150;28;20114;-70
2022/06/17 02:38:04;;;;;;;2.60;2.03;;;18.80;98.10;;;;;;4095943;28;20083;-70
2022/06/17 02:40:13;;;;;;;2.55;1.98;;;18.80;98.00;;;;;;4097814;28;20119;-71
2022/06/17 02:42:28;;;;;;;3.70;2.42;;;18.80;98.30;;;;;;4097858;28;20039;-70
2022/06/17 02:44:36;;;;;;;3.30;2.35;;;18.80;98.20;;;;;;4097474;28;20035;-70
2022/06/17 02:46:40;;;;;;;2.80;2.22;;;18.80;98.60;;;;;;4095207;28;20174;-70
2022/06/17 02:48:47;;;;;;;4.50;2.00;;;18.80;98.40;;;;;;4097471;28;20054;-70
2022/06/17 02:50:50;;;;;;;3.58;1.90;;;18.70;98.60;;;;;;4096447;28;20076;-70
2022/06/17 02:52:52;;;;;;;4.68;2.45;;;18.70;97.60;;;;;;4097473;28;20043;-70
2022/06/17 02:54:58;;;;;;;3.70;2.00;;;18.70;97.50;;;;;;4097506;28;20047;-70
2022/06/17 02:57:02;;;;;;;4.00;2.20;;;18.60;97.60;;;;;;4095528;28;20549;-70
2022/06/17 02:59:23;;;;;;;4.53;2.10;;;18.60;98.00;;;;;;4096666;28;20039;-70
2022/06/17 03:01:27;;;;;;;2.28;1.73;;;18.60;98.50;;;;;;4094541;28;20047;-70
2022/06/17 03:03:29;;;;;;;4.43;1.95;;;18.60;99.40;;;;;;4097193;28;20427;-70
2022/06/17 03:05:35;;;;;;;4.15;2.08;;;18.60;99.40;;;;;;4096534;28;20471;-70
2022/06/17 03:07:36;;;;;;;3.70;2.08;;;18.60;99.20;;;;;;4097374;28;20082;-70
2022/06/17 03:09:37;;;;;;;5.50;2.10;;;18.60;98.80;;;;;;4096128;28;20039;-70
2022/06/17 03:11:38;;;;;;;3.38;1.92;;;18.60;98.80;;;;;;4096101;28;20069;-70
2022/06/17 03:13:43;;;;;;;3.20;1.80;;;18.60;98.50;;;;;;4097684;28;20039;-70
2022/06/17 03:15:47;;;;;;;3.75;2.28;;;18.60;99.50;;;;;;4096887;28;20537;-70
2022/06/17 03:17:48;;;;;;;3.47;2.30;;;18.60;99.40;;;;;;4097203;28;21530;-70
2022/06/17 03:19:49;;;;;;;6.07;2.15;;;18.50;98.00;;;;;;4096424;28;20458;-70
2022/06/17 03:21:50;;;;;;;8.07;2.05;;;18.50;98.40;;;;;;4096118;28;20110;-70
2022/06/17 03:24:12;;;;;;;13.18;2.58;;;18.50;99.20;;;;;;4097228;29;20035;-70
2022/06/17 03:26:22;;;;;;;2.47;2.03;;;18.50;99.10;;;;;;4095923;29;20031;-70
2022/06/17 03:28:29;;;;;;;2.45;2.00;;;18.50;98.70;;;;;;4095713;28;20047;-70
2022/06/17 03:30:36;;;;;;;4.78;2.00;;;18.40;99.70;;;;;;4095308;28;20158;-70
2022/06/17 03:32:40;;;;;;;6.10;1.77;;;18.40;99.90;;;;;;4096167;28;20427;-70
2022/06/17 03:34:50;;;;;;;5.68;2.08;;;18.40;98.90;;;;;;4097042;28;20044;-70
2022/06/17 03:36:59;;;;;;;2.95;1.95;;;18.40;99.90;;;;;;4084880;29;20027;-70
2022/06/17 03:39:04;;;;;;;8.23;2.25;;;18.40;99.90;;;;;;4096309;28;20070;-70
2022/06/17 03:41:21;;;;;;;2.45;2.13;;;18.40;99.90;;;;;;4096761;28;20036;-70
2022/06/17 03:43:33;;;;;;;6.43;2.17;;;18.40;99.90;;;;;;4094885;28;20074;-70
2022/06/17 03:45:43;;;;;;;7.53;2.20;;;18.40;99.10;;;;;;4095714;28;20114;-70
2022/06/17 03:47:57;;;;;;;3.28;2.20;;;18.40;99.90;;;;;;4080985;29;20044;-70
2022/06/17 03:50:02;;;;;;;2.50;1.88;;;18.40;99.90;;;;;;4095612;28;20032;-69
2022/06/17 03:52:13;;;;;;;4.03;2.25;;;18.30;99.20;;;;;;4096282;28;20710;-70
2022/06/17 03:54:14;;;;;;;4.88;2.22;;;18.30;99.90;;;;;;4096560;28;20066;-70
2022/06/17 03:56:25;;;;;;;5.13;2.30;;;18.30;99.90;;;;;;4095406;28;20086;-70
2022/06/17 03:58:26;;;;;;;7.97;3.20;;;18.20;99.70;;;;;;4095966;29;20118;-70
2022/06/17 04:00:48;;;;;;;3.28;1.98;;;18.20;99.70;;;;;;4095778;28;20027;-69
2022/06/17 04:02:50;;;;;;;3.58;2.25;;;18.20;99.90;;;;;;4092997;28;20122;-70
2022/06/17 04:04:52;;;;;;;5.38;2.72;;;18.10;99.90;;;;;;4096571;28;20039;-70
2022/06/17 04:06:56;;;;;;;4.37;2.50;;;18.10;99.90;;;;;;4096163;28;20050;-70
2022/06/17 04:09:20;;;;;;;4.22;2.17;;;18.10;99.90;;;;;;4095662;29;20439;-70
2022/06/17 04:11:25;;;;;;;9.93;2.53;;;18.10;99.90;;;;;;4095302;28;20062;-70
2022/06/17 04:13:29;;;;;;;6.07;2.35;;;18.10;99.90;;;;;;4096139;28;20065;-70
2022/06/17 04:15:48;;;;;;;4.57;2.47;;;18.10;99.90;;;;;;4094975;28;20050;-70
2022/06/17 04:17:48;;;;;;;5.82;2.40;;;18.10;99.90;;;;;;4097420;28;20050;-70
2022/06/17 04:20:12;;;;;;;5.13;2.40;;;18.10;99.90;;;;;;4096943;28;20118;-70
2022/06/17 04:22:26;;;;;;;7.22;2.10;;;18.10;99.90;;;;;;4074963;28;20235;-70
2022/06/17 04:24:29;;;;;;;10.60;2.50;;;18.10;99.90;;;;;;4095918;29;20053;-70
2022/06/17 04:26:32;;;;;;;5.60;2.40;;;18.20;99.90;;;;;;4095214;28;20043;-70
2022/06/17 04:28:49;;;;;;;4.55;2.47;;;18.20;99.90;;;;;;4095863;28;20122;-70
2022/06/17 04:30:54;;;;;;;5.30;2.35;;;18.20;99.90;;;;;;4094651;28;20031;-70
2022/06/17 04:33:07;;;;;;;3.25;2.30;;;18.20;99.90;;;;;;4096280;28;20031;-70
2022/06/17 04:35:12;;;;;;;2.90;2.55;;;18.20;99.90;;;;;;4093831;28;20042;-72
2022/06/17 04:37:21;;;;;;;4.80;2.42;;;18.20;99.90;;;;;;4096435;29;20040;-70
2022/06/17 04:39:43;;;;;;;3.83;2.85;;;18.20;99.90;;;;;;4096021;28;20043;-70
2022/06/17 04:41:45;;;;;;;3.67;2.73;;;18.20;99.90;;;;;;4095671;28;20443;-70
2022/06/17 04:43:50;;;;;;;4.95;3.00;;;18.30;99.90;;;;;;4093341;28;20126;-70
2022/06/17 04:46:20;;;;;;;5.25;2.70;;;18.30;99.90;;;;;;4095375;28;20046;-70
2022/06/17 04:48:21;;;;;;;5.85;2.97;;;18.40;99.90;;;;;;4087700;28;20035;-70
2022/06/17 04:50:26;;;;;;;5.45;2.83;;;18.40;99.90;;;;;;4094575;28;20071;-71
2022/06/17 04:52:34;;;;;;;3.00;2.42;;;18.40;99.90;;;;;;4094457;28;20035;-71
2022/06/17 04:54:36;;;;;;;3.50;2.58;;;18.50;99.90;;;;;;4092318;28;20043;-70
2022/06/17 04:56:41;;;;;;;5.07;2.50;;;18.50;99.90;;;;;;4087315;28;20411;-70
2022/06/17 04:58:41;;;;;;;5.60;2.83;;;18.50;99.90;;;;;;4095091;28;20114;-70
2022/06/17 05:00:54;;;;;;;5.18;2.95;;;18.50;99.90;;;;;;4098007;28;20042;-70
2022/06/17 05:02:55;;;;;;;5.78;3.83;;;18.60;99.90;;;;;;4093196;28;20031;-70
2022/06/17 05:04:58;;;;;;;4.85;3.42;;;18.50;99.90;;;;;;4097233;28;20039;-70
2022/06/17 05:06:59;;;;;;;5.90;3.97;;;18.50;99.90;;;;;;4095401;28;20438;-70
2022/06/17 05:09:07;;;;;;;6.38;3.28;;;18.50;99.90;;;;;;4083862;28;20039;-72
2022/06/17 05:11:24;;;;;;;4.95;3.38;;;18.50;99.90;;;;;;4096918;28;20129;-73
2022/06/17 05:13:33;;;;;;;5.30;3.03;;;18.60;99.90;;;;;;4092633;28;20054;-73
2022/06/17 05:15:34;;;;;;;6.05;3.22;;;18.60;99.90;;;;;;4091674;28;20043;-73
2022/06/17 05:17:35;;;;;;;4.93;3.67;;;18.70;99.90;;;;;;4091085;28;20550;-73
2022/06/17 05:19:36;;;;;;;4.78;3.00;;;18.70;99.90;;;;;;4090062;28;20051;-73
2022/06/17 05:21:36;;;;;;;7.38;3.50;;;18.70;99.90;;;;;;4092443;28;20460;-73
2022/06/17 05:23:38;;;;;;;5.20;3.67;;;18.70;99.90;;;;;;4090467;28;20032;-73
2022/06/17 05:25:41;;;;;;;7.88;4.00;;;18.70;99.90;;;;;;4090670;28;20043;-73
2022/06/17 05:27:41;;;;;;;6.85;3.80;;;18.80;99.90;;;;;;4088451;28;20063;-73
2022/06/17 05:29:42;;;;;;;4.65;3.03;;;18.80;99.90;;;;;;4092512;28;20042;-73
2022/06/17 05:31:49;;;;;;;6.88;3.67;;;18.90;99.90;;;;;;4091377;28;20561;-73
2022/06/17 05:33:50;;;;;;;7.18;4.15;;;19.00;99.90;;;;;;4075701;29;20515;-74
2022/06/17 05:35:50;;;;;;;7.45;4.03;;;18.90;99.50;;;;;;4091936;28;20039;-73
2022/06/17 05:37:51;;;;;;;8.15;3.70;;;19.00;99.90;;;;;;4092528;28;20031;-73
2022/06/17 05:39:54;;;;;;;8.63;3.53;;;19.00;99.90;;;;;;4090882;28;20039;-73
2022/06/17 05:41:54;;;;;;;6.20;3.97;;;18.90;99.80;;;;;;4091057;28;20043;-73
2022/06/17 05:43:55;;;;;;;5.50;3.25;;;19.00;99.90;;;;;;4092673;28;20486;-73
2022/06/17 05:45:56;;;;;;;5.72;3.45;;;19.00;99.90;;;;;;4091629;28;20043;-73
2022/06/17 05:47:56;;;;;;;6.68;3.63;;;19.10;99.90;;;;;;4091993;28;20114;-73
2022/06/17 05:49:57;;;;;;;4.63;3.13;;;19.10;99.90;;;;;;4092213;28;20122;-73
2022/06/17 05:51:58;;;;;;;6.47;3.40;;;19.20;99.90;;;;;;4090717;28;20031;-73
2022/06/17 05:53:59;;;;;;;4.97;3.13;;;19.20;99.90;;;;;;4088721;28;20562;-71
2022/06/17 05:55:59;;;;;;;6.07;3.30;;;19.20;99.90;;;;;;4090546;28;20047;-73
2022/06/17 05:58:00;;;;;;;4.97;3.38;;;19.30;99.90;;;;;;4091992;29;20059;-73
2022/06/17 06:00:01;;;;;;;6.70;3.08;;;19.30;99.90;;;;;;4090717;28;20038;-73
2022/06/17 06:02:02;;;;;;;6.65;3.58;;;19.40;99.90;;;;;;4090944;28;20391;-73
2022/06/17 06:04:03;;;;;;;5.55;3.15;;;19.40;99.90;;;;;;4091613;28;20243;-73
2022/06/17 06:06:03;;;;;;;4.72;2.85;;;19.60;99.90;;;;;;4091567;28;20562;-73
2022/06/17 06:08:04;;;;;;;5.57;2.95;;;19.70;99.90;;;;;;4091651;28;20035;-73
2022/06/17 06:10:07;;;;;;;4.85;3.10;;;19.80;99.50;;;;;;4091847;28;20039;-75
2022/06/17 06:12:08;;;;;;;;;;;19.90;99.00;;;;;;4093176;28;20035;-73
2022/06/17 06:14:08;;;;;;;6.43;3.22;;;19.90;98.90;;;;;;4095432;28;20038;-73
2022/06/17 06:16:09;;;;;;;7.70;3.28;;;19.90;98.70;;;;;;4093944;28;20050;-73
2022/06/17 06:18:15;;;;;;;7.28;3.40;;;20.10;98.60;;;;;;4094036;28;20066;-74
2022/06/17 06:20:17;;;;;;;4.88;2.70;;;20.30;98.30;;;;;;4094662;28;20031;-74
2022/06/17 06:22:17;;;;;;;5.40;2.65;;;20.50;97.40;;;;;;4094239;28;20179;-73
2022/06/17 06:24:18;;;;;;;4.15;2.45;;;20.80;97.40;;;;;;4094952;28;20060;-73
2022/06/17 06:26:20;;;;;;;7.22;2.88;;;21.10;97.20;;;;;;4094604;28;20114;-73
2022/06/17 06:28:24;;;;;;;3.28;2.40;;;21.40;95.50;;;;;;4094306;28;20122;-74
2022/06/17 06:30:28;;;;;;;5.07;2.88;;;21.70;94.70;;;;;;4094506;28;20035;-74
2022/06/17 06:32:28;;;;;;;4.32;2.72;;;21.90;94.20;;;;;;4094140;28;20391;-74
2022/06/17 06:34:29;;;;;;;4.95;2.35;;;22.10;94.30;;;;;;4094035;28;20034;-74
2022/06/17 06:36:30;;;;;;;4.82;2.15;;;22.30;94.00;;;;;;4093797;28;20553;-73
2022/06/17 06:38:30;;;;;;;4.10;2.22;;;22.40;92.50;;;;;;4093228;28;20483;-74
2022/06/17 06:40:32;;;;;;;4.07;2.22;;;22.60;92.90;;;;;;4095401;28;20055;-74
2022/06/17 06:42:32;;;;;;;4.55;1.90;;;22.70;92.80;;;;;;4095108;28;20035;-74
2022/06/17 06:44:33;;;;;;;3.65;2.00;;;22.90;92.80;;;;;;4095120;28;20035;-74
2022/06/17 06:46:35;;;;;;;4.15;2.08;;;23.00;91.80;;;;;;4088376;28;20046;-74
2022/06/17 06:48:36;;;;;;;4.18;2.20;;;23.20;91.60;;;;;;4094392;28;20110;-74
2022/06/17 06:50:39;;;;;;;3.50;2.20;;;23.30;91.20;;;;;;4095317;28;20082;-74
2022/06/17 06:52:40;;;;;;;3.72;2.20;;;23.40;91.30;;;;;;4094190;28;20430;-74
2022/06/17 06:54:40;;;;;;;5.65;2.83;;;23.50;90.00;;;;;;4090798;28;20051;-74
2022/06/17 06:56:41;;;;;;;5.63;2.33;;;23.50;90.10;;;;;;4091670;28;20074;-74
2022/06/17 06:58:41;;;;;;;3.08;2.00;;;23.60;90.10;;;;;;4094642;28;20046;-74
2022/06/17 07:00:51;;;;;;;4.80;2.28;;;23.60;90.00;;;;;;4094758;28;20125;-74
2022/06/17 07:02:52;;;;;;;6.80;2.33;;;23.80;89.90;;;;;;4094962;28;20042;-74
2022/06/17 07:04:53;;;;;;;3.95;2.33;;;23.80;89.10;;;;;;4094853;28;20039;-74
2022/06/17 07:06:53;;;;;;;2.58;1.92;;;23.80;88.80;;;;;;4094247;28;20158;-74
2022/06/17 07:08:54;;;;;;;3.72;2.20;;;23.80;88.70;;;;;;4094150;28;20043;-74
2022/06/17 07:10:56;;;;;;;4.15;2.05;;;23.90;88.70;;;;;;4093501;28;20113;-72
2022/06/17 07:12:57;;;;;;;3.63;2.03;;;24.00;89.90;;;;;;4094785;28;20039;-71
2022/06/17 07:14:58;;;;;;;2.53;1.83;;;24.10;88.30;;;;;;4094553;28;20027;-74
2022/06/17 07:16:58;;;;;;;7.30;2.58;;;24.10;89.40;;;;;;4094454;28;20514;-74
2022/06/17 07:18:59;;;;;;;5.85;2.17;;;24.20;85.20;;;;;;4094689;28;20090;-74
2022/06/17 07:21:03;;;;;;;4.00;2.00;;;24.10;84.60;;;;;;4093755;28;20051;-74
2022/06/17 07:23:04;;;;;;;3.92;1.95;;;24.10;86.70;;;;;;4093739;28;20039;-74
2022/06/17 07:25:05;;;;;;;5.85;2.38;;;24.20;86.10;;;;;;4093465;28;20094;-76
2022/06/17 07:27:06;;;;;;;4.25;1.90;;;24.20;85.20;;;;;;4094125;28;20047;-73
2022/06/17 07:29:08;;;;;;;3.35;1.90;;;24.30;84.70;;;;;;4094589;28;20043;-74
2022/06/17 07:31:09;;;;;;;4.47;2.00;;;24.30;84.90;;;;;;4093676;28;20043;-74
2022/06/17 07:33:09;;;;;;;3.90;1.80;;;24.30;83.40;;;;;;4094737;28;20035;-74
2022/06/17 07:35:11;;;;;;;6.20;2.10;;;24.40;83.90;;;;;;4092808;28;20434;-75
2022/06/17 07:41:50;;;;;;;4.68;1.98;;;24.30;81.70;;;;;;4092620;28;20041;-74
2022/06/17 07:43:54;;;;;;;3.17;1.83;;;24.30;83.20;;;;;;4094183;28;20066;-73
2022/06/17 07:45:54;;;;;;;7.07;2.40;;;24.40;82.60;;;;;;4091189;28;20557;-74
2022/06/17 07:47:55;;;;;;;3.13;1.60;;;24.40;83.70;;;;;;4077893;29;20103;-74
2022/06/17 07:49:56;;;;;;;4.07;2.30;;;24.40;82.90;;;;;;4094152;28;20042;-73
2022/06/17 07:51:57;;;;;;;7.68;1.70;;;24.50;82.40;;;;;;4092671;28;20032;-74
2022/06/17 07:53:57;;;;;;;3.40;2.20;;;24.50;81.10;;;;;;4092718;28;20090;-73
2022/06/17 07:55:59;;;;;;;3.58;2.00;;;24.50;82.00;;;;;;4094878;28;20035;-74
2022/06/17 07:58:00;;;;;;;4.68;1.88;;;24.60;82.00;;;;;;4094868;28;20023;-74
2022/06/17 08:00:02;;;;;;;3.13;1.83;;;24.70;81.20;;;;;;4093722;28;20130;-72
2022/06/17 08:02:03;;;;;;;3.97;2.33;;;24.70;82.50;;;;;;4092764;28;20098;-73
2022/06/17 08:04:04;;;;;;;3.70;1.80;;;24.80;80.80;;;;;;4094014;28;20051;-74
2022/06/17 08:06:04;;;;;;;2.90;1.95;;;24.80;81.80;;;;;;4093018;28;20457;-73
2022/06/17 08:08:08;;;;;;;7.03;2.05;;;24.90;80.90;;;;;;4094064;28;20039;-73
2022/06/17 08:10:13;;;;;;;6.40;2.50;;;24.90;79.20;;;;;;4094194;28;20039;-74
2022/06/17 08:12:14;;;;;;;4.50;2.08;;;24.90;78.70;;;;;;4093109;28;20064;-74
2022/06/17 08:14:15;;;;;;;5.80;2.15;;;24.90;80.10;;;;;;4094173;28;20081;-74
2022/06/17 08:16:16;;;;;;;2.58;1.38;;;24.90;78.90;;;;;;4093602;28;20039;-74
2022/06/17 08:18:16;;;;;;;3.78;1.90;;;25.00;80.00;;;;;;4094450;28;20071;-73
2022/06/17 08:20:21;;;;;;;5.45;2.13;;;25.00;78.50;;;;;;4095890;28;20031;-75
2022/06/17 08:22:25;;;;;;;3.05;1.70;;;25.00;78.90;;;;;;4092571;28;20037;-73
2022/06/17 08:24:25;;;;;;;3.13;1.50;;;25.10;79.90;;;;;;4092807;28;20510;-74
2022/06/17 08:26:26;;;;;;;5.35;1.92;;;25.20;78.80;;;;;;4091751;28;20348;-71
2022/06/17 08:28:28;;;;;;;3.70;1.73;;;25.30;80.50;;;;;;4093403;28;20039;-73
2022/06/17 08:30:36;;;;;;;3.58;1.85;;;25.40;80.20;;;;;;4092972;28;20039;-75
2022/06/17 08:32:46;;;;;;;2.28;1.45;;;25.40;78.70;;;;;;4075961;29;20054;-73
2022/06/17 08:34:46;;;;;;;2.55;1.58;;;25.40;77.80;;;;;;4093573;28;20059;-74
2022/06/17 08:36:47;;;;;;;3.40;1.40;;;25.50;75.80;;;;;;4093122;28;20040;-74
2022/06/17 08:38:51;;;;;;;5.15;1.63;;;25.60;75.30;;;;;;4093602;28;20034;-73
2022/06/17 08:40:59;;;;;;;5.30;1.92;;;25.60;75.90;;;;;;4091088;28;20380;-74
2022/06/17 08:43:16;;;;;;;3.03;1.48;;;25.50;73.00;;;;;;4092938;28;20520;-74
2022/06/17 08:46:00;;;;;;;2.65;1.55;;;25.50;73.30;;;;;;4092426;28;20031;-75
2022/06/17 08:48:20;;;;;;;1.73;1.40;;;25.50;75.00;;;;;;4066108;29;20032;-72
2022/06/17 08:50:31;;;;;;;2.17;1.30;;;25.40;72.50;;;;;;4084394;28;20054;-74
2022/06/17 08:53:06;;;;;;;2.70;1.30;;;25.60;74.10;;;;;;4091483;28;20075;-73
2022/06/17 08:55:24;;;;;;;3.65;1.63;;;25.60;74.10;;;;;;4086428;28;20562;-75
2022/06/17 08:57:50;;;;;;;3.90;1.80;;;25.70;75.20;;;;;;4094121;28;20036;-73
2022/06/17 09:00:14;;;;;;;2.60;1.38;;;25.70;73.30;;;;;;4092366;28;20122;-74
2022/06/17 09:02:41;;;;;;;3.63;1.73;;;25.80;75.10;;;;;;4092375;28;20032;-74
2022/06/17 09:05:12;;;;;;;3.45;1.63;;;25.80;72.80;;;;;;4075589;28;20050;-74
2022/06/17 09:07:31;;;;;;;2.70;1.30;;;25.80;74.10;;;;;;4092639;28;20043;-74
2022/06/17 09:09:41;;;;;;;3.40;1.50;;;25.80;73.30;;;;;;4092195;29;20042;-72
2022/06/17 09:12:20;;;;;;;2.78;1.73;;;25.80;72.90;;;;;;4092541;28;20043;-72
2022/06/17 09:14:41;;;;;;;3.45;1.60;;;25.80;72.50;;;;;;4092729;28;20498;-73
2022/06/17 09:17:02;;;;;;;2.47;1.70;;;25.80;73.20;;;;;;4091758;28;20557;-73
2022/06/17 09:19:03;;;;;;;4.45;1.65;;;25.80;73.10;;;;;;4090064;28;20054;-72
2022/06/17 09:21:14;;;;;;;5.55;1.88;;;25.80;74.30;;;;;;4077012;29;20468;-72
2022/06/17 09:23:23;;;;;;;3.72;1.70;;;25.90;73.20;;;;;;4092318;28;20502;-73
2022/06/17 09:25:36;;;;;;;4.68;1.38;;;25.90;73.30;;;;;;4092086;28;20214;-73
2022/06/17 09:27:41;;;;;;;2.00;1.30;;;26.00;72.70;;;;;;4091851;28;20039;-72
2022/06/17 09:29:53;;;;;;;1.95;1.23;;;26.10;72.60;;;;;;4092136;28;20047;-72
2022/06/17 09:32:06;;;;;;;2.00;1.50;;;26.20;72.90;;;;;;4091015;28;20091;-72
2022/06/17 09:34:12;;;;;;;3.33;1.65;;;26.30;73.10;;;;;;4090579;28;20054;-72
2022/06/17 09:36:22;;;;;;;7.68;1.80;;;26.30;71.80;;;;;;4076103;29;20419;-72
2022/06/17 09:38:37;;;;;;;4.00;1.60;;;26.30;71.40;;;;;;4092703;28;20122;-72
2022/06/17 09:40:46;;;;;;;4.82;1.73;;;26.20;71.50;;;;;;4092756;28;20058;-72
2022/06/17 09:42:56;;;;;;;3.78;1.80;;;26.20;72.80;;;;;;4092648;28;20039;-73
2022/06/17 09:45:08;;;;;;;2.70;1.30;;;26.20;70.50;;;;;;4092117;28;20031;-72
2022/06/17 09:47:17;;;;;;;1.52;1.13;;;26.20;73.10;;;;;;4091368;28;20043;-72
2022/06/17 09:49:23;;;;;;;1.20;1.10;;;26.30;73.80;;;;;;4092615;28;20052;-72
2022/06/17 09:51:34;;;;;;;5.10;1.50;;;26.30;70.30;;;;;;4090951;28;20053;-72
2022/06/17 09:53:48;;;;;;;2.88;1.52;;;26.40;71.40;;;;;;4088801;28;20051;-72
2022/06/17 09:55:54;;;;;;;3.00;1.52;;;26.50;70.80;;;;;;4092012;28;20108;-72
2022/06/17 09:58:00;;;;;;;1.70;1.25;;;26.40;70.40;;;;;;4092172;28;20039;-72
2022/06/17 10:00:14;;;;;;;2.90;1.33;;;26.60;70.70;;;;;;4091984;28;20027;-72
2022/06/17 10:02:27;;;;;;;2.85;1.48;;;26.60;69.80;;;;;;4091786;28;20395;-72
2022/06/17 10:04:27;;;;;;;2.40;1.17;;;26.70;68.00;;;;;;4090453;28;20031;-72
2022/06/17 10:06:38;;;;;;;4.72;1.90;;;26.80;68.20;;;;;;4090370;28;20415;-73
2022/06/17 10:08:57;;;;;;;4.82;2.20;;;26.80;68.30;;;;;;4091497;28;20110;-72
2022/06/17 10:11:11;;;;;;;2.08;1.17;;;26.80;64.40;;;;;;4089806;28;20041;-72
2022/06/17 10:13:38;;;;;;;2.10;1.30;;;26.80;65.00;;;;;;4092099;28;20126;-72
2022/06/17 10:18:31;;;;;;;1.88;1.10;;;26.90;67.50;;;;;;4079139;28;20043;-72
2022/06/17 10:18:34;;;;;;;2.05;1.38;;;27.00;67.90;;;;;;4089682;28;20053;-71
2022/06/17 10:20:56;;;;;;;4.07;1.50;;;27.10;66.80;;;;;;4090212;28;20043;-72
2022/06/17 10:23:20;;;;;;;2.30;1.38;;;27.20;67.00;;;;;;4091437;28;20545;-72
2022/06/17 10:25:27;;;;;;;2.03;1.08;;;27.20;66.40;;;;;;4091632;28;20495;-73
2022/06/17 10:27:57;;;;;;;1.88;1.00;;;27.30;66.90;;;;;;4092377;28;20483;-72
2022/06/17 10:30:11;;;;;;;7.97;1.52;;;27.40;65.20;;;;;;4074591;28;20434;-72
2022/06/17 10:32:12;;;;;;;4.13;1.38;;;27.30;64.10;;;;;;4092584;28;20028;-72
2022/06/17 10:34:37;;;;;;;2.25;1.10;;;27.40;66.50;;;;;;4093030;28;20106;-72
2022/06/17 10:36:39;;;;;;;5.82;1.35;;;27.30;62.20;;;;;;4074973;29;20569;-72
2022/06/17 10:38:44;;;;;;;4.07;1.27;;;27.40;64.10;;;;;;4092035;28;20040;-72
2022/06/17 10:40:45;;;;;;;1.67;0.98;;;27.40;63.80;;;;;;4091967;28;20137;-72
2022/06/17 10:42:47;;;;;;;1.92;1.10;;;27.40;64.00;;;;;;4092420;28;20485;-72
2022/06/17 10:44:51;;;;;;;3.13;1.10;;;27.40;64.70;;;;;;4092306;28;20038;-72
2022/06/17 10:47:06;;;;;;;3.55;1.38;;;27.50;64.10;;;;;;4089608;28;20090;-72
2022/06/17 10:49:16;;;;;;;3.28;1.40;;;27.60;66.30;;;;;;4089929;28;20083;-72
2022/06/17 10:51:17;;;;;;;2.65;1.30;;;27.70;64.00;;;;;;4090540;28;20046;-72
2022/06/17 10:53:24;;;;;;;1.75;1.20;;;27.70;65.40;;;;;;4090043;28;20521;-73
2022/06/17 10:55:33;;;;;;;2.00;1.10;;;27.80;65.90;;;;;;4087425;28;20546;-73
2022/06/17 10:57:37;;;;;;;3.05;1.27;;;27.80;63.70;;;;;;4091926;28;20487;-72
2022/06/17 10:59:42;;;;;;;2.72;1.55;;;27.90;65.20;;;;;;4094158;28;20406;-72
2022/06/17 11:01:45;;;;;;;2.55;1.33;;;27.90;64.50;;;;;;4091769;28;20039;-72
2022/06/17 11:03:48;;;;;;;1.63;1.45;;;27.90;65.80;;;;;;4094430;28;20071;-72
2022/06/17 11:05:55;;;;;;;2.72;1.50;;;28.00;63.40;;;;;;4093443;28;20062;-72